Accueil
METAR-TAF:

METAR-TAF

Aéroports :

Santa Maria di Leuca

Castrignano del Capo, Italie

latitude: 39-49N, longitude: 018-21E, altitude: 104 m

Observation

Le bulletin a été fait il y a 45 minutes, à 08:55 UTC
Vent 16 kt de nord
Température 19°C
Humidité 49%
Pression 1020 hPa
Visibilité 10 km ou plus
Nuages épars à une hauteur de 2000 ft

METAR: LIBY 270855Z 01016KT 9999 SCT020 19/08 Q1020 RMK SCT QUK 4 QUL 2 N VIS MAR 20 KM VIS MIN 9999

Heure: 11:40 (09:40 UTC)


TAF: absent

Observations et prévisions météorologiques de plus de 4000 aéroports (messages METAR et TAF).

Les stations disponibles sont représentées par des disques jaunes et rouges sur la carte.

Passer la souris dessus pour voir le nom de la station.

Cliquer dessus pour voir les observations et prévisions météorologiques.

Pour changer de carte: cliquez sur les boutons verts avec une croix noire pour zoomer, sur le bouton vert avec un tiret pour effectuer un zoom arrière, ou sur les flèches vertes pour les cartes adjacentes.


METAR-TAF: